MSC Eleni — H3BQ — position and weather

sailwx.info

Track history (hours):
 
Tides and Currents Weather Stations Pressure Air Temp Water Temp Dewpoint Dewpoint Depression Visibility Wind Speed Wind Dir Waves Ship Positions

MSC Eleni

Last reported at 2018-May-26 19:19 UTC. Time now 2018-Jun-25 00:43 UTC.
Position N 41°46' E 006°04'.
Warning: this ship's position is 29 days out of date.

Length 294 m; draft 12.9 m.

Type: Ship (hazmat cat A). MMSI: 357067000.

Date/timePositionNaut miles runAvg speedWind from/ knotsBaromVisibWave heightAir tempDewpointWater temp
2018-May-26 19:19N 41°46' E 006°04'515.6
2018-May-26 19:00N 41°51' E 006°01'815.7
2018-May-26 18:31N 41°58' E 005°56'815.7
2018-May-26 18:00N 42°05' E 005°52'815.6
2018-May-26 17:30N 42°12' E 005°47'815.1
2018-May-26 17:00N 42°18' E 005°42'815.3
2018-May-26 16:30N 42°25' E 005°37'815.4
2018-May-26 16:00N 42°31' E 005°31'815.4
2018-May-26 15:31N 42°38' E 005°26'3515.3
2018-May-26 13:12N 43°09' E 005°02'415.2
2018-May-26 12:55N 43°13' E 004°60'615.1
2018-May-26 12:31N 43°19' E 004°59'4 8.8
2018-May-26 12:00N 43°23' E 004°57'5 9.4
2018-May-26 11:30N 43°25' E 004°51'1 1.4
2018-May-26 11:00N 43°25' E 004°50'0 0.0
2018-May-26 10:28N 43°25' E 004°50'0 0.0
2018-May-26 09:58N 43°25' E 004°50'0 0.0
2018-May-26 09:28N 43°25' E 004°50'0 0.0
2018-May-26 08:58N 43°25' E 004°50'0 0.0
2018-May-26 08:28N 43°25' E 004°50'0 0.0
2018-May-26 07:58N 43°25' E 004°50'0 0.0
2018-May-26 07:28N 43°25' E 004°50'0 0.0
2018-May-26 06:58N 43°25' E 004°50'0 0.0
2018-May-26 06:28N 43°25' E 004°50'0 0.0
2018-May-26 05:28N 43°25' E 004°50'0 0.0
2018-May-26 04:58N 43°25' E 004°50'0 0.0
2018-May-26 04:28N 43°25' E 004°50'0 0.0
2018-May-26 03:58N 43°25' E 004°50'0 0.1
2018-May-26 03:30N 43°25' E 004°50'1 1.7
2018-May-26 03:00N 43°25' E 004°51'4 8.6
2018-May-26 02:30N 43°23' E 004°57'5 9.3
2018-May-26 02:00N 43°19' E 004°59'510.9
2018-May-26 01:30N 43°14' E 005°02'4 8.8
2018-May-26 01:00N 43°10' E 005°03'815.5
2018-May-26 00:31N 43°04' E 004°56'815.9
2018-May-26 00:00N 42°58' E 004°49'1216.1
2018-May-25 23:15N 42°48' E 004°39'416.0
2018-May-25 22:59N 42°45' E 004°36'816.6
2018-May-25 22:30N 42°38' E 004°29'3716.7
2018-May-25 20:18N 42°09' E 003°59'817.1
2018-May-25 19:51N 42°03' E 003°52'617.4
2018-May-25 19:31N 41°58' E 003°47'916.9
2018-May-25 18:57N 41°51' E 003°39'816.8
2018-May-25 18:30N 41°45' E 003°33'816.7
2018-May-25 18:01N 41°39' E 003°26'816.2
2018-May-25 17:30N 41°32' E 003°19'4016.5
2018-May-25 15:04N 41°00' E 002°47'116.9
2018-May-25 15:00N 40°60' E 002°46'23517.1
2018-May-25 01:13N 37°51' W 000°16'417.0
2018-May-25 00:59N 37°47' W 000°19'817.2
2018-May-25 00:30N 37°40' W 000°24'917.6
2018-May-25 00:00N 37°33' W 000°31'917.8
2018-May-24 23:30N 37°27' W 000°38'917.3
2018-May-24 23:00N 37°21' W 000°47'917.0
2018-May-24 22:30N 37°16' W 000°55'23017.1
2018-May-24 09:00N 35°57' W 005°25'15617.4
2018-May-24 00:02N 36°24' W 008°35'1618.2
2018-May-23 23:08N 36°29' W 008°55'318.1
2018-May-23 22:58N 36°30' W 008°58'6916.3
2018-May-23 18:45N 37°27' W 009°46'418.1
2018-May-23 18:30N 37°31' W 009°48'917.7
2018-May-23 18:00N 37°40' W 009°50'917.8
2018-May-23 17:29N 37°49' W 009°53'817.9
2018-May-23 17:00N 37°57' W 009°55'917.6
2018-May-23 16:30N 38°06' W 009°57'917.9
2018-May-23 16:00N 38°14' W 009°59'917.9
2018-May-23 15:30N 38°23' W 010°02'917.9
2018-May-23 15:00N 38°32' W 010°05'917.8
2018-May-23 14:30N 38°41' W 010°07'917.6
2018-May-23 14:00N 38°49' W 010°06'917.7
2018-May-23 13:30N 38°58' W 010°06'918.1
2018-May-23 13:01N 39°07' W 010°05'918.0
2018-May-23 12:30N 39°16' W 010°07'917.5
2018-May-23 11:58N 39°26' W 010°07'57417.9
2018-May-22 03:51N 48°32' W 006°04'718.6
2018-May-22 03:30N 48°38' W 005°60'918.8
2018-May-22 03:00N 48°47' W 005°53'918.8
2018-May-22 02:30N 48°55' W 005°46'918.9
2018-May-22 02:01N 49°00' W 005°34'1019.6
2018-May-22 01:30N 49°05' W 005°21'918.4
2018-May-22 01:00N 49°09' W 005°09'918.1
2018-May-22 00:30N 49°14' W 004°57'6418.3
2018-May-21 21:00N 49°47' W 003°32'918.6
2018-May-21 20:30N 49°51' W 003°19'1019.3
2018-May-21 20:00N 49°56' W 003°06'1019.9
2018-May-21 19:30N 49°59' W 002°52'1120.8
2018-May-21 18:58N 50°02' W 002°35'1421.5
2018-May-21 18:17N 50°05' W 002°13'621.8
2018-May-21 18:00N 50°06' W 002°03'1121.6
2018-May-21 17:31N 50°05' W 001°47'1020.4
2018-May-21 17:00N 50°03' W 001°31'1020.1
2018-May-21 16:30N 49°56' W 001°20'1020.2
2018-May-21 16:00N 49°51' W 001°06'1019.1
2018-May-21 15:30N 49°46' W 000°53'918.6
2018-May-21 15:00N 49°42' W 000°40'1418.1
2018-May-21 14:14N 49°36' W 000°21'517.3
2018-May-21 13:58N 49°34' W 000°14'612.2
2018-May-21 13:29N 49°32' W 000°06'612.9
2018-May-21 13:00N 49°30' E 000°03'4 8.2
2018-May-21 12:28N 49°27' E 000°09'0 0.3
2018-May-21 11:58N 49°28' E 000°09'0 0.0
2018-May-21 11:28N 49°28' E 000°09'0 0.0
2018-May-21 10:58N 49°28' E 000°09'0 0.0
2018-May-21 10:28N 49°28' E 000°09'0 0.0
2018-May-21 09:58N 49°28' E 000°09'0 0.0
2018-May-21 09:28N 49°28' E 000°09'0 0.0
2018-May-21 08:58N 49°28' E 000°09'0 0.0
2018-May-21 08:28N 49°28' E 000°09'0 0.0
2018-May-21 07:58N 49°28' E 000°09'0 0.0
2018-May-21 07:28N 49°28' E 000°09'0 0.0
2018-May-21 06:58N 49°28' E 000°09'0 0.0
2018-May-21 06:28N 49°28' E 000°09'0 0.0
2018-May-21 05:58N 49°28' E 000°09'0 0.0
2018-May-21 05:28N 49°28' E 000°09'0 0.0
2018-May-21 04:58N 49°28' E 000°09'0 0.0
2018-May-21 04:28N 49°28' E 000°09'0 0.0
2018-May-21 03:58N 49°28' E 000°09'0 0.0
2018-May-21 03:28N 49°28' E 000°09'0 0.0
2018-May-21 02:58N 49°28' E 000°09'0 0.0
2018-May-21 02:28N 49°28' E 000°09'0 0.0
2018-May-21 01:58N 49°28' E 000°09'0 0.0
2018-May-21 01:28N 49°28' E 000°09'0 0.0
2018-May-21 00:58N 49°28' E 000°09'0 0.0
2018-May-21 00:25N 49°28' E 000°09'0 0.0
2018-May-20 23:58N 49°28' E 000°09'0 0.0
2018-May-20 23:28N 49°28' E 000°09'0 0.0
2018-May-20 22:58N 49°28' E 000°09'0 0.0
2018-May-20 22:28N 49°28' E 000°09'0 0.0
2018-May-20 22:00N 49°28' E 000°09'0 0.0
2018-May-20 21:30N 49°28' E 000°09'0 0.0
2018-May-20 21:00N 49°28' E 000°09'0 0.0
2018-May-20 20:29N 49°28' E 000°09'0 0.0
2018-May-20 19:59N 49°28' E 000°09'0 0.0
2018-May-20 19:29N 49°28' E 000°09'0 0.0
2018-May-20 18:59N 49°28' E 000°09'0 0.0
2018-May-20 18:30N 49°28' E 000°09'0 0.0
2018-May-20 18:00N 49°28' E 000°09'0 0.0
2018-May-20 17:30N 49°28' E 000°09'0 0.0
2018-May-20 17:00N 49°28' E 000°09'0 0.0
2018-May-20 16:30N 49°28' E 000°09'0 0.0
2018-May-20 16:00N 49°28' E 000°09'0 0.0
2018-May-20 15:30N 49°28' E 000°09'0 0.0
2018-May-20 14:59N 49°28' E 000°09'0 0.0
2018-May-20 14:29N 49°28' E 000°09'0 0.0
2018-May-20 13:59N 49°28' E 000°09'0 0.0
2018-May-20 13:29N 49°28' E 000°09'0 0.0
2018-May-20 12:59N 49°28' E 000°09'0 0.0
2018-May-20 12:29N 49°28' E 000°09'0 0.0
2018-May-20 11:58N 49°28' E 000°09'0 0.0
2018-May-20 11:28N 49°28' E 000°09'0 0.0
2018-May-20 11:00N 49°28' E 000°09'0 0.1
2018-May-20 10:30N 49°28' E 000°09'3 5.3
2018-May-20 10:01N 49°29' E 000°05'713.6
2018-May-20 09:30N 49°31' W 000°05'510.0
2018-May-20 09:00N 49°33' W 000°12'611.3
2018-May-20 08:31N 49°36' W 000°19'815.1
2018-May-20 08:01N 49°43' W 000°13'713.8
2018-May-20 07:30N 49°49' W 000°10'612.4
2018-May-20 07:00N 49°55' W 000°10'712.4
2018-May-20 06:28N 50°02' W 000°11'712.9
2018-May-20 05:54N 50°09' W 000°12'612.7
2018-May-20 05:27N 50°15' W 000°14'511.8
2018-May-20 04:59N 50°20' W 000°12'612.5
2018-May-20 04:29N 50°25' W 000°06'612.6
2018-May-20 04:00N 50°28' E 000°02'612.6
2018-May-20 03:30N 50°31' E 000°11'612.8
2018-May-20 03:00N 50°33' E 000°20'612.8
2018-May-20 02:30N 50°35' E 000°30'612.5
2018-May-20 02:00N 50°38' E 000°38'612.6
2018-May-20 01:30N 50°42' E 000°46'612.6
2018-May-20 01:00N 50°46' E 000°54'612.5
2018-May-20 00:30N 50°50' E 001°01'612.3
2018-May-20 00:00N 50°54' E 001°08'711.7
2018-May-19 23:26N 50°59' E 001°17'511.3
2018-May-19 23:00N 51°02' E 001°23'612.3
2018-May-19 22:30N 51°06' E 001°30'613.0
2018-May-19 22:00N 51°10' E 001°38'713.6
2018-May-19 21:30N 51°14' E 001°46'612.8
2018-May-19 21:00N 51°19' E 001°53'713.1
2018-May-19 20:30N 51°24' E 001°59'611.4
2018-May-19 20:00N 51°23' E 002°08'612.1
2018-May-19 19:30N 51°21' E 002°17'612.4
2018-May-19 19:00N 51°22' E 002°27'611.2
2018-May-19 18:30N 51°23' E 002°36'610.6
2018-May-19 17:59N 51°22' E 002°45'611.8
2018-May-19 17:30N 51°23' E 002°54'713.8
2018-May-19 16:59N 51°24' E 003°05'714.1
2018-May-19 16:30N 51°25' E 003°16'713.9
2018-May-19 16:00N 51°25' E 003°27'511.1
2018-May-19 15:30N 51°26' E 003°35'4 8.5
2018-May-19 14:59N 51°25' E 003°42'612.3
2018-May-19 14:30N 51°21' E 003°49'611.9
2018-May-19 14:00N 51°24' E 003°57'3 6.1
2018-May-19 13:29N 51°24' E 004°02'510.0
2018-May-19 13:00N 51°23' E 004°10'5 9.2
2018-May-19 12:30N 51°21' E 004°16'3 5.1
2018-May-19 11:58N 51°18' E 004°16'0 0.1
2018-May-19 11:25N 51°18' E 004°16'0 0.0
2018-May-19 10:58N 51°18' E 004°16'0 0.0
2018-May-19 10:28N 51°18' E 004°16'0 0.0
2018-May-19 09:58N 51°18' E 004°16'0 0.0
2018-May-19 09:13N 51°18' E 004°16'0 0.0
2018-May-19 08:58N 51°18' E 004°16'0 0.0
2018-May-19 08:28N 51°18' E 004°16'0 0.0
2018-May-19 07:58N 51°18' E 004°16'0 0.0
2018-May-19 07:25N 51°18' E 004°16'0 0.0
2018-May-19 06:55N 51°18' E 004°16'0 0.0
2018-May-19 06:28N 51°18' E 004°16'0 0.0
2018-May-19 05:48N 51°18' E 004°16'0 0.0
2018-May-19 05:30N 51°18' E 004°16'0 0.0
2018-May-19 05:00N 51°18' E 004°16'0 0.0
2018-May-19 04:30N 51°18' E 004°16'0 0.0
2018-May-19 03:48N 51°18' E 004°16'0 0.0
2018-May-19 03:30N 51°18' E 004°16'0 0.0
2018-May-19 02:54N 51°18' E 004°16'0 0.0
2018-May-19 02:30N 51°18' E 004°16'0 0.0
2018-May-19 02:00N 51°18' E 004°16'0 0.0
2018-May-19 01:30N 51°18' E 004°16'0 0.0
2018-May-19 00:57N 51°18' E 004°16'0 0.0
2018-May-19 00:30N 51°18' E 004°16'0 0.0
2018-May-18 23:57N 51°18' E 004°16'0 0.0
2018-May-18 23:27N 51°18' E 004°16'0 0.0
2018-May-18 22:54N 51°18' E 004°16'0 0.0
2018-May-18 22:27N 51°18' E 004°16'0 0.0
2018-May-18 22:00N 51°18' E 004°16'0 0.0
2018-May-18 21:27N 51°18' E 004°16'0 0.0
2018-May-18 21:00N 51°18' E 004°16'0 0.0
2018-May-18 20:30N 51°18' E 004°16'0 0.0
2018-May-18 20:00N 51°18' E 004°16'0 0.0
2018-May-18 19:30N 51°18' E 004°16'0 0.0
2018-May-18 19:00N 51°18' E 004°16'0 0.0
2018-May-18 18:27N 51°18' E 004°16'0 0.0
2018-May-18 17:57N 51°18' E 004°16'0 0.0
2018-May-18 17:30N 51°18' E 004°16'0 0.0
2018-May-18 16:57N 51°18' E 004°16'0 0.0
2018-May-18 16:30N 51°18' E 004°16'0 0.0
2018-May-18 16:00N 51°18' E 004°16'0 0.0
2018-May-18 15:30N 51°18' E 004°16'1 1.1
2018-May-18 15:00N 51°18' E 004°16'3 6.2
2018-May-18 14:30N 51°21' E 004°14'5 9.3
2018-May-18 14:00N 51°22' E 004°07'712.4
2018-May-18 13:29N 51°26' E 003°58'714.2
2018-May-18 13:00N 51°21' E 003°51'713.1
2018-May-18 12:30N 51°24' E 003°43'510.6
2018-May-18 12:00N 51°25' E 003°34'612.4
2018-May-18 11:31N 51°25' E 003°24'815.1
2018-May-18 11:00N 51°24' E 003°12'714.2
2018-May-18 10:30N 51°25' E 003°01'713.2
2018-May-18 10:00N 51°31' E 003°05'816.4
2018-May-18 09:30N 51°38' E 003°11'613.0
2018-May-18 09:00N 51°44' E 003°14'4 7.9
2018-May-18 08:30N 51°48' E 003°16'3 6.9
2018-May-18 08:00N 51°51' E 003°17'4 7.7
2018-May-18 07:30N 51°55' E 003°18'5 9.4
2018-May-18 07:00N 51°60' E 003°19'5 9.4
2018-May-18 06:31N 52°04' E 003°21'510.5
2018-May-18 06:00N 52°10' E 003°20'816.1
2018-May-18 05:29N 52°18' E 003°23'917.1
2018-May-18 04:59N 52°26' E 003°27'916.9
2018-May-18 04:28N 52°35' E 003°30'816.3
2018-May-18 04:00N 52°41' E 003°37'2615.9
2018-May-18 02:22N 53°01' E 004°05'716.1
2018-May-18 01:57N 53°05' E 004°13'817.2
2018-May-18 01:30N 53°10' E 004°23'1017.3
2018-May-18 00:56N 53°19' E 004°30'818.5
2018-May-18 00:30N 53°27' E 004°34'1018.1
2018-May-17 23:55N 53°37' E 004°39'1217.8
2018-May-17 23:16N 53°48' E 004°47'517.6
2018-May-17 22:58N 53°52' E 004°50'1017.3
2018-May-17 22:24N 54°02' E 004°56'717.2
2018-May-17 22:00N 54°08' E 005°01'917.1
2018-May-17 21:28N 54°15' E 005°10'817.9
2018-May-17 21:00N 54°22' E 005°18'7818.6
2018-May-17 16:48N 55°29' E 006°28'618.7
2018-May-17 16:28N 55°34' E 006°34'1118.7
2018-May-17 15:51N 55°44' E 006°44'618.6
2018-May-17 15:30N 55°50' E 006°50'16417.8
2018-May-17 06:17N 57°48' E 010°19'518.6
2018-May-17 06:00N 57°48' E 010°29'917.7
2018-May-17 05:30N 57°48' E 010°46'510.2
2018-May-17 04:59N 57°45' E 010°53'5 9.2
2018-May-17 04:30N 57°41' E 010°59'918.2
2018-May-17 04:01N 57°36' E 011°11'918.0
2018-May-17 03:30N 57°29' E 011°24'917.8
2018-May-17 03:01N 57°21' E 011°30'918.4
2018-May-17 02:31N 57°13' E 011°35'918.3
2018-May-17 02:01N 57°04' E 011°41'918.1
2018-May-17 01:31N 56°55' E 011°47'918.2
2018-May-17 01:00N 56°47' E 011°52'816.8
2018-May-17 00:30N 56°39' E 011°47'917.6
2018-May-17 00:00N 56°32' E 011°38'917.9
2018-May-16 23:30N 56°24' E 011°31'1018.5
2018-May-16 22:59N 56°15' E 011°22'917.8
2018-May-16 22:30N 56°08' E 011°13'917.6
2018-May-16 21:59N 56°01' E 011°05'817.0
2018-May-16 21:30N 55°55' E 010°55'611.7
2018-May-16 21:00N 55°50' E 010°49'815.0
2018-May-16 20:30N 55°42' E 010°47'815.8
2018-May-16 20:00N 55°34' E 010°50'816.8
2018-May-16 19:30N 55°27' E 010°57'  
Track history (hours):
 
Tides and Currents Weather Stations Pressure Air Temp Water Temp Dewpoint Dewpoint Depression Visibility Wind Speed Wind Dir Waves Ship Positions

MSC Eleni

Last reported at 2018-May-26 19:19 UTC. Time now 2018-Jun-25 00:43 UTC.
Position N 41°46' E 006°04'.
Warning: this ship's position is 29 days out of date.

Length 294 m; draft 12.9 m.

Type: Ship (hazmat cat A). MMSI: 357067000.

Date/timePositionNaut miles runAvg speedWind from/ knotsBaromVisibWave heightAir tempDewpointWater temp
2018-May-26 19:19N 41°46' E 006°04'515.6
2018-May-26 19:00N 41°51' E 006°01'815.7
2018-May-26 18:31N 41°58' E 005°56'815.7
2018-May-26 18:00N 42°05' E 005°52'815.6
2018-May-26 17:30N 42°12' E 005°47'815.1
2018-May-26 17:00N 42°18' E 005°42'815.3
2018-May-26 16:30N 42°25' E 005°37'815.4
2018-May-26 16:00N 42°31' E 005°31'815.4
2018-May-26 15:31N 42°38' E 005°26'3515.3
2018-May-26 13:12N 43°09' E 005°02'415.2
2018-May-26 12:55N 43°13' E 004°60'615.1
2018-May-26 12:31N 43°19' E 004°59'4 8.8
2018-May-26 12:00N 43°23' E 004°57'5 9.4
2018-May-26 11:30N 43°25' E 004°51'1 1.4
2018-May-26 11:00N 43°25' E 004°50'0 0.0
2018-May-26 10:28N 43°25' E 004°50'0 0.0
2018-May-26 09:58N 43°25' E 004°50'0 0.0
2018-May-26 09:28N 43°25' E 004°50'0 0.0
2018-May-26 08:58N 43°25' E 004°50'0 0.0
2018-May-26 08:28N 43°25' E 004°50'0 0.0
2018-May-26 07:58N 43°25' E 004°50'0 0.0
2018-May-26 07:28N 43°25' E 004°50'0 0.0
2018-May-26 06:58N 43°25' E 004°50'0 0.0
2018-May-26 06:28N 43°25' E 004°50'0 0.0
2018-May-26 05:28N 43°25' E 004°50'0 0.0
2018-May-26 04:58N 43°25' E 004°50'0 0.0
2018-May-26 04:28N 43°25' E 004°50'0 0.0
2018-May-26 03:58N 43°25' E 004°50'0 0.1
2018-May-26 03:30N 43°25' E 004°50'1 1.7
2018-May-26 03:00N 43°25' E 004°51'4 8.6
2018-May-26 02:30N 43°23' E 004°57'5 9.3
2018-May-26 02:00N 43°19' E 004°59'510.9
2018-May-26 01:30N 43°14' E 005°02'4 8.8
2018-May-26 01:00N 43°10' E 005°03'815.5
2018-May-26 00:31N 43°04' E 004°56'815.9
2018-May-26 00:00N 42°58' E 004°49'1216.1
2018-May-25 23:15N 42°48' E 004°39'416.0
2018-May-25 22:59N 42°45' E 004°36'816.6
2018-May-25 22:30N 42°38' E 004°29'3716.7
2018-May-25 20:18N 42°09' E 003°59'817.1
2018-May-25 19:51N 42°03' E 003°52'617.4
2018-May-25 19:31N 41°58' E 003°47'916.9
2018-May-25 18:57N 41°51' E 003°39'816.8
2018-May-25 18:30N 41°45' E 003°33'816.7
2018-May-25 18:01N 41°39' E 003°26'816.2
2018-May-25 17:30N 41°32' E 003°19'4016.5
2018-May-25 15:04N 41°00' E 002°47'116.9
2018-May-25 15:00N 40°60' E 002°46'23517.1
2018-May-25 01:13N 37°51' W 000°16'417.0
2018-May-25 00:59N 37°47' W 000°19'817.2
2018-May-25 00:30N 37°40' W 000°24'917.6
2018-May-25 00:00N 37°33' W 000°31'917.8
2018-May-24 23:30N 37°27' W 000°38'917.3
2018-May-24 23:00N 37°21' W 000°47'917.0
2018-May-24 22:30N 37°16' W 000°55'23017.1
2018-May-24 09:00N 35°57' W 005°25'15617.4
2018-May-24 00:02N 36°24' W 008°35'1618.2
2018-May-23 23:08N 36°29' W 008°55'318.1
2018-May-23 22:58N 36°30' W 008°58'6916.3
2018-May-23 18:45N 37°27' W 009°46'418.1
2018-May-23 18:30N 37°31' W 009°48'917.7
2018-May-23 18:00N 37°40' W 009°50'917.8
2018-May-23 17:29N 37°49' W 009°53'817.9
2018-May-23 17:00N 37°57' W 009°55'917.6
2018-May-23 16:30N 38°06' W 009°57'917.9
2018-May-23 16:00N 38°14' W 009°59'917.9
2018-May-23 15:30N 38°23' W 010°02'917.9
2018-May-23 15:00N 38°32' W 010°05'917.8
2018-May-23 14:30N 38°41' W 010°07'917.6
2018-May-23 14:00N 38°49' W 010°06'917.7
2018-May-23 13:30N 38°58' W 010°06'918.1
2018-May-23 13:01N 39°07' W 010°05'918.0
2018-May-23 12:30N 39°16' W 010°07'917.5
2018-May-23 11:58N 39°26' W 010°07'57417.9
2018-May-22 03:51N 48°32' W 006°04'718.6
2018-May-22 03:30N 48°38' W 005°60'918.8
2018-May-22 03:00N 48°47' W 005°53'918.8
2018-May-22 02:30N 48°55' W 005°46'918.9
2018-May-22 02:01N 49°00' W 005°34'1019.6
2018-May-22 01:30N 49°05' W 005°21'918.4
2018-May-22 01:00N 49°09' W 005°09'918.1
2018-May-22 00:30N 49°14' W 004°57'6418.3
2018-May-21 21:00N 49°47' W 003°32'918.6
2018-May-21 20:30N 49°51' W 003°19'1019.3
2018-May-21 20:00N 49°56' W 003°06'1019.9
2018-May-21 19:30N 49°59' W 002°52'1120.8
2018-May-21 18:58N 50°02' W 002°35'1421.5
2018-May-21 18:17N 50°05' W 002°13'621.8
2018-May-21 18:00N 50°06' W 002°03'1121.6
2018-May-21 17:31N 50°05' W 001°47'1020.4
2018-May-21 17:00N 50°03' W 001°31'1020.1
2018-May-21 16:30N 49°56' W 001°20'1020.2
2018-May-21 16:00N 49°51' W 001°06'1019.1
2018-May-21 15:30N 49°46' W 000°53'918.6
2018-May-21 15:00N 49°42' W 000°40'1418.1
2018-May-21 14:14N 49°36' W 000°21'517.3
2018-May-21 13:58N 49°34' W 000°14'612.2
2018-May-21 13:29N 49°32' W 000°06'612.9
2018-May-21 13:00N 49°30' E 000°03'4 8.2
2018-May-21 12:28N 49°27' E 000°09'0 0.3
2018-May-21 11:58N 49°28' E 000°09'0 0.0
2018-May-21 11:28N 49°28' E 000°09'0 0.0
2018-May-21 10:58N 49°28' E 000°09'0 0.0
2018-May-21 10:28N 49°28' E 000°09'0 0.0
2018-May-21 09:58N 49°28' E 000°09'0 0.0
2018-May-21 09:28N 49°28' E 000°09'0 0.0
2018-May-21 08:58N 49°28' E 000°09'0 0.0
2018-May-21 08:28N 49°28' E 000°09'0 0.0
2018-May-21 07:58N 49°28' E 000°09'0 0.0
2018-May-21 07:28N 49°28' E 000°09'0 0.0
2018-May-21 06:58N 49°28' E 000°09'0 0.0
2018-May-21 06:28N 49°28' E 000°09'0 0.0
2018-May-21 05:58N 49°28' E 000°09'0 0.0
2018-May-21 05:28N 49°28' E 000°09'0 0.0
2018-May-21 04:58N 49°28' E 000°09'0 0.0
2018-May-21 04:28N 49°28' E 000°09'0 0.0
2018-May-21 03:58N 49°28' E 000°09'0 0.0
2018-May-21 03:28N 49°28' E 000°09'0 0.0
2018-May-21 02:58N 49°28' E 000°09'0 0.0
2018-May-21 02:28N 49°28' E 000°09'0 0.0
2018-May-21 01:58N 49°28' E 000°09'0 0.0
2018-May-21 01:28N 49°28' E 000°09'0 0.0
2018-May-21 00:58N 49°28' E 000°09'0 0.0
2018-May-21 00:25N 49°28' E 000°09'0 0.0
2018-May-20 23:58N 49°28' E 000°09'0 0.0
2018-May-20 23:28N 49°28' E 000°09'0 0.0
2018-May-20 22:58N 49°28' E 000°09'0 0.0
2018-May-20 22:28N 49°28' E 000°09'0 0.0
2018-May-20 22:00N 49°28' E 000°09'0 0.0
2018-May-20 21:30N 49°28' E 000°09'0 0.0
2018-May-20 21:00N 49°28' E 000°09'0 0.0
2018-May-20 20:29N 49°28' E 000°09'0 0.0
2018-May-20 19:59N 49°28' E 000°09'0 0.0
2018-May-20 19:29N 49°28' E 000°09'0 0.0
2018-May-20 18:59N 49°28' E 000°09'0 0.0
2018-May-20 18:30N 49°28' E 000°09'0 0.0
2018-May-20 18:00N 49°28' E 000°09'0 0.0
2018-May-20 17:30N 49°28' E 000°09'0 0.0
2018-May-20 17:00N 49°28' E 000°09'0 0.0
2018-May-20 16:30N 49°28' E 000°09'0 0.0
2018-May-20 16:00N 49°28' E 000°09'0 0.0
2018-May-20 15:30N 49°28' E 000°09'0 0.0
2018-May-20 14:59N 49°28' E 000°09'0 0.0
2018-May-20 14:29N 49°28' E 000°09'0 0.0
2018-May-20 13:59N 49°28' E 000°09'0 0.0
2018-May-20 13:29N 49°28' E 000°09'0 0.0
2018-May-20 12:59N 49°28' E 000°09'0 0.0
2018-May-20 12:29N 49°28' E 000°09'0 0.0
2018-May-20 11:58N 49°28' E 000°09'0 0.0
2018-May-20 11:28N 49°28' E 000°09'0 0.0
2018-May-20 11:00N 49°28' E 000°09'0 0.1
2018-May-20 10:30N 49°28' E 000°09'3 5.3
2018-May-20 10:01N 49°29' E 000°05'713.6
2018-May-20 09:30N 49°31' W 000°05'510.0
2018-May-20 09:00N 49°33' W 000°12'611.3
2018-May-20 08:31N 49°36' W 000°19'815.1
2018-May-20 08:01N 49°43' W 000°13'713.8
2018-May-20 07:30N 49°49' W 000°10'612.4
2018-May-20 07:00N 49°55' W 000°10'712.4
2018-May-20 06:28N 50°02' W 000°11'712.9
2018-May-20 05:54N 50°09' W 000°12'612.7
2018-May-20 05:27N 50°15' W 000°14'511.8
2018-May-20 04:59N 50°20' W 000°12'612.5
2018-May-20 04:29N 50°25' W 000°06'612.6
2018-May-20 04:00N 50°28' E 000°02'612.6
2018-May-20 03:30N 50°31' E 000°11'612.8
2018-May-20 03:00N 50°33' E 000°20'612.8
2018-May-20 02:30N 50°35' E 000°30'612.5
2018-May-20 02:00N 50°38' E 000°38'612.6
2018-May-20 01:30N 50°42' E 000°46'612.6
2018-May-20 01:00N 50°46' E 000°54'612.5
2018-May-20 00:30N 50°50' E 001°01'612.3
2018-May-20 00:00N 50°54' E 001°08'711.7
2018-May-19 23:26N 50°59' E 001°17'511.3
2018-May-19 23:00N 51°02' E 001°23'612.3
2018-May-19 22:30N 51°06' E 001°30'613.0
2018-May-19 22:00N 51°10' E 001°38'713.6
2018-May-19 21:30N 51°14' E 001°46'612.8
2018-May-19 21:00N 51°19' E 001°53'713.1
2018-May-19 20:30N 51°24' E 001°59'611.4
2018-May-19 20:00N 51°23' E 002°08'612.1
2018-May-19 19:30N 51°21' E 002°17'612.4
2018-May-19 19:00N 51°22' E 002°27'611.2
2018-May-19 18:30N 51°23' E 002°36'610.6
2018-May-19 17:59N 51°22' E 002°45'611.8
2018-May-19 17:30N 51°23' E 002°54'713.8
2018-May-19 16:59N 51°24' E 003°05'714.1
2018-May-19 16:30N 51°25' E 003°16'713.9
2018-May-19 16:00N 51°25' E 003°27'511.1
2018-May-19 15:30N 51°26' E 003°35'4 8.5
2018-May-19 14:59N 51°25' E 003°42'612.3
2018-May-19 14:30N 51°21' E 003°49'611.9
2018-May-19 14:00N 51°24' E 003°57'3 6.1
2018-May-19 13:29N 51°24' E 004°02'510.0
2018-May-19 13:00N 51°23' E 004°10'5 9.2
2018-May-19 12:30N 51°21' E 004°16'3 5.1
2018-May-19 11:58N 51°18' E 004°16'0 0.1
2018-May-19 11:25N 51°18' E 004°16'0 0.0
2018-May-19 10:58N 51°18' E 004°16'0 0.0
2018-May-19 10:28N 51°18' E 004°16'0 0.0
2018-May-19 09:58N 51°18' E 004°16'0 0.0
2018-May-19 09:13N 51°18' E 004°16'0 0.0
2018-May-19 08:58N 51°18' E 004°16'0 0.0
2018-May-19 08:28N 51°18' E 004°16'0 0.0
2018-May-19 07:58N 51°18' E 004°16'0 0.0
2018-May-19 07:25N 51°18' E 004°16'0 0.0
2018-May-19 06:55N 51°18' E 004°16'0 0.0
2018-May-19 06:28N 51°18' E 004°16'0 0.0
2018-May-19 05:48N 51°18' E 004°16'0 0.0
2018-May-19 05:30N 51°18' E 004°16'0 0.0
2018-May-19 05:00N 51°18' E 004°16'0 0.0
2018-May-19 04:30N 51°18' E 004°16'0 0.0
2018-May-19 03:48N 51°18' E 004°16'0 0.0
2018-May-19 03:30N 51°18' E 004°16'0 0.0
2018-May-19 02:54N 51°18' E 004°16'0 0.0
2018-May-19 02:30N 51°18' E 004°16'0 0.0
2018-May-19 02:00N 51°18' E 004°16'0 0.0
2018-May-19 01:30N 51°18' E 004°16'0 0.0
2018-May-19 00:57N 51°18' E 004°16'0 0.0
2018-May-19 00:30N 51°18' E 004°16'0 0.0
2018-May-18 23:57N 51°18' E 004°16'0 0.0
2018-May-18 23:27N 51°18' E 004°16'0 0.0
2018-May-18 22:54N 51°18' E 004°16'0 0.0
2018-May-18 22:27N 51°18' E 004°16'0 0.0
2018-May-18 22:00N 51°18' E 004°16'0 0.0
2018-May-18 21:27N 51°18' E 004°16'0 0.0
2018-May-18 21:00N 51°18' E 004°16'0 0.0
2018-May-18 20:30N 51°18' E 004°16'0 0.0
2018-May-18 20:00N 51°18' E 004°16'0 0.0
2018-May-18 19:30N 51°18' E 004°16'0 0.0
2018-May-18 19:00N 51°18' E 004°16'0 0.0
2018-May-18 18:27N 51°18' E 004°16'0 0.0
2018-May-18 17:57N 51°18' E 004°16'0 0.0
2018-May-18 17:30N 51°18' E 004°16'0 0.0
2018-May-18 16:57N 51°18' E 004°16'0 0.0
2018-May-18 16:30N 51°18' E 004°16'0 0.0
2018-May-18 16:00N 51°18' E 004°16'0 0.0
2018-May-18 15:30N 51°18' E 004°16'1 1.1
2018-May-18 15:00N 51°18' E 004°16'3 6.2
2018-May-18 14:30N 51°21' E 004°14'5 9.3
2018-May-18 14:00N 51°22' E 004°07'712.4
2018-May-18 13:29N 51°26' E 003°58'714.2
2018-May-18 13:00N 51°21' E 003°51'713.1
2018-May-18 12:30N 51°24' E 003°43'510.6
2018-May-18 12:00N 51°25' E 003°34'612.4
2018-May-18 11:31N 51°25' E 003°24'815.1
2018-May-18 11:00N 51°24' E 003°12'714.2
2018-May-18 10:30N 51°25' E 003°01'713.2
2018-May-18 10:00N 51°31' E 003°05'816.4
2018-May-18 09:30N 51°38' E 003°11'613.0
2018-May-18 09:00N 51°44' E 003°14'4 7.9
2018-May-18 08:30N 51°48' E 003°16'3 6.9
2018-May-18 08:00N 51°51' E 003°17'4 7.7
2018-May-18 07:30N 51°55' E 003°18'5 9.4
2018-May-18 07:00N 51°60' E 003°19'5 9.4
2018-May-18 06:31N 52°04' E 003°21'510.5
2018-May-18 06:00N 52°10' E 003°20'816.1
2018-May-18 05:29N 52°18' E 003°23'917.1
2018-May-18 04:59N 52°26' E 003°27'916.9
2018-May-18 04:28N 52°35' E 003°30'816.3
2018-May-18 04:00N 52°41' E 003°37'2615.9
2018-May-18 02:22N 53°01' E 004°05'716.1
2018-May-18 01:57N 53°05' E 004°13'817.2
2018-May-18 01:30N 53°10' E 004°23'1017.3
2018-May-18 00:56N 53°19' E 004°30'818.5
2018-May-18 00:30N 53°27' E 004°34'1018.1
2018-May-17 23:55N 53°37' E 004°39'1217.8
2018-May-17 23:16N 53°48' E 004°47'517.6
2018-May-17 22:58N 53°52' E 004°50'1017.3
2018-May-17 22:24N 54°02' E 004°56'717.2
2018-May-17 22:00N 54°08' E 005°01'917.1
2018-May-17 21:28N 54°15' E 005°10'817.9
2018-May-17 21:00N 54°22' E 005°18'7818.6
2018-May-17 16:48N 55°29' E 006°28'618.7
2018-May-17 16:28N 55°34' E 006°34'1118.7
2018-May-17 15:51N 55°44' E 006°44'618.6
2018-May-17 15:30N 55°50' E 006°50'16417.8
2018-May-17 06:17N 57°48' E 010°19'518.6
2018-May-17 06:00N 57°48' E 010°29'917.7
2018-May-17 05:30N 57°48' E 010°46'510.2
2018-May-17 04:59N 57°45' E 010°53'5 9.2
2018-May-17 04:30N 57°41' E 010°59'918.2
2018-May-17 04:01N 57°36' E 011°11'918.0
2018-May-17 03:30N 57°29' E 011°24'917.8
2018-May-17 03:01N 57°21' E 011°30'918.4
2018-May-17 02:31N 57°13' E 011°35'918.3
2018-May-17 02:01N 57°04' E 011°41'918.1
2018-May-17 01:31N 56°55' E 011°47'918.2
2018-May-17 01:00N 56°47' E 011°52'816.8
2018-May-17 00:30N 56°39' E 011°47'917.6
2018-May-17 00:00N 56°32' E 011°38'917.9
2018-May-16 23:30N 56°24' E 011°31'1018.5
2018-May-16 22:59N 56°15' E 011°22'917.8
2018-May-16 22:30N 56°08' E 011°13'917.6
2018-May-16 21:59N 56°01' E 011°05'817.0
2018-May-16 21:30N 55°55' E 010°55'611.7
2018-May-16 21:00N 55°50' E 010°49'815.0
2018-May-16 20:30N 55°42' E 010°47'815.8
2018-May-16 20:00N 55°34' E 010°50'816.8
2018-May-16 19:30N 55°27' E 010°57'  

Dump ship's entire track history